createdAt,value
2018-12-14T00:00:52.987Z,6.55
2018-12-14T00:03:21.413Z,6.35
2018-12-14T00:05:49.850Z,6.20
2018-12-14T00:08:18.267Z,6.30
2018-12-14T00:10:46.701Z,6.03
2018-12-14T00:13:15.123Z,6.90
2018-12-14T00:15:43.565Z,7.22
2018-12-14T00:18:12.829Z,7.70
2018-12-14T00:20:41.300Z,6.80
2018-12-14T00:23:09.718Z,6.58
2018-12-14T00:25:38.210Z,6.28
2018-12-14T00:28:06.750Z,7.08
2018-12-14T00:30:35.187Z,6.83
2018-12-14T00:33:03.669Z,6.45
2018-12-14T00:35:32.330Z,6.12
2018-12-14T00:38:00.751Z,7.08
2018-12-14T00:40:29.218Z,7.10
2018-12-14T00:42:57.634Z,7.28
2018-12-14T00:45:26.055Z,7.60
2018-12-14T00:47:54.500Z,7.70
2018-12-14T00:50:22.926Z,7.15
2018-12-14T00:52:51.359Z,6.97
2018-12-14T00:55:19.778Z,8.10
2018-12-14T00:57:48.244Z,7.28
2018-12-14T01:00:16.666Z,8.55
2018-12-14T01:02:45.095Z,7.47
2018-12-14T01:05:13.591Z,8.23
2018-12-14T01:07:42.130Z,6.55
2018-12-14T01:10:10.546Z,7.28
2018-12-14T01:12:39.023Z,9.25
2018-12-14T01:15:07.681Z,8.00
2018-12-14T01:17:36.234Z,8.40
2018-12-14T01:20:06.011Z,7.20
2018-12-14T01:22:34.442Z,9.23
2018-12-14T01:25:03.099Z,8.10
2018-12-14T01:27:31.546Z,7.85
2018-12-14T01:29:59.970Z,7.80
2018-12-14T01:32:28.410Z,8.33
2018-12-14T01:34:56.835Z,9.45
2018-12-14T01:37:25.266Z,7.95
2018-12-14T01:39:53.683Z,8.43
2018-12-14T01:42:22.238Z,8.30
2018-12-14T01:44:50.658Z,7.10
2018-12-14T01:47:19.157Z,7.72
2018-12-14T01:49:47.575Z,8.85
2018-12-14T01:52:16.055Z,7.35
2018-12-14T01:54:44.606Z,9.88
2018-12-14T01:57:13.038Z,6.25
2018-12-14T01:59:41.490Z,7.92
2018-12-14T02:02:09.922Z,8.35
2018-12-14T02:04:38.376Z,8.28
2018-12-14T02:07:06.814Z,8.65
2018-12-14T02:09:35.273Z,8.50
2018-12-14T02:12:03.878Z,7.78
2018-12-14T02:14:32.337Z,7.25
2018-12-14T02:17:00.789Z,8.43
2018-12-14T02:19:29.243Z,7.60
2018-12-14T02:21:57.692Z,8.75
2018-12-14T02:24:26.139Z,8.98
2018-12-14T02:26:54.587Z,8.13
2018-12-14T02:29:23.042Z,6.97
2018-12-14T02:31:51.484Z,8.13
2018-12-14T02:34:19.929Z,8.00
2018-12-14T02:36:48.458Z,9.03
2018-12-14T02:39:17.002Z,8.48
2018-12-14T02:41:45.446Z,7.72
2018-12-14T02:44:13.898Z,8.28
2018-12-14T02:46:42.335Z,8.65
2018-12-14T02:49:10.848Z,8.30
2018-12-14T02:51:39.796Z,8.93
2018-12-14T02:54:08.239Z,8.88
2018-12-14T02:56:36.664Z,9.03
2018-12-14T02:59:05.111Z,8.88
2018-12-14T03:01:33.545Z,7.85
2018-12-14T03:04:02.002Z,7.75
2018-12-14T03:06:30.419Z,8.40
2018-12-14T03:08:58.849Z,8.53
2018-12-14T03:11:27.288Z,7.60
2018-12-14T03:13:55.706Z,8.18
2018-12-14T03:16:24.154Z,10.05
2018-12-14T03:18:52.571Z,8.58
2018-12-14T03:21:21.034Z,9.80
2018-12-14T03:23:49.450Z,7.55
2018-12-14T03:26:18.018Z,7.60
2018-12-14T03:28:46.432Z,8.78
2018-12-14T03:31:14.863Z,7.55
2018-12-14T03:33:43.278Z,8.38
2018-12-14T03:36:11.725Z,8.33
2018-12-14T03:38:40.139Z,8.38
2018-12-14T03:41:08.583Z,8.25
2018-12-14T03:43:37.018Z,7.10
2018-12-14T03:46:05.496Z,8.58
2018-12-14T03:48:33.917Z,10.03
2018-12-14T03:51:02.710Z,9.23
2018-12-14T03:53:31.166Z,8.40
2018-12-14T03:55:59.618Z,7.58
2018-12-14T03:58:28.042Z,8.80
2018-12-14T04:00:56.623Z,8.05
2018-12-14T04:03:25.056Z,8.78
2018-12-14T04:05:53.510Z,7.53
2018-12-14T04:08:21.937Z,7.70
2018-12-14T04:10:50.371Z,8.98
2018-12-14T04:13:18.822Z,8.30
2018-12-14T04:15:47.259Z,8.33
2018-12-14T04:18:15.743Z,8.33
2018-12-14T04:20:44.181Z,9.85
2018-12-14T04:23:12.639Z,7.65
2018-12-14T04:25:41.084Z,8.35
2018-12-14T04:28:09.538Z,7.78
2018-12-14T04:30:37.972Z,8.03
2018-12-14T04:33:06.430Z,8.05
2018-12-14T04:35:34.900Z,8.13
2018-12-14T04:38:03.338Z,8.55
2018-12-14T04:40:31.770Z,8.43
2018-12-14T04:43:00.291Z,9.30
2018-12-14T04:45:28.719Z,9.03
2018-12-14T04:47:57.158Z,9.00
2018-12-14T04:50:25.617Z,8.80
2018-12-14T04:52:54.131Z,9.48
2018-12-14T04:55:22.553Z,8.85
2018-12-14T04:57:50.994Z,9.40
2018-12-14T05:00:19.414Z,8.05
2018-12-14T05:02:47.849Z,8.80
2018-12-14T05:05:16.307Z,9.08
2018-12-14T05:07:44.750Z,7.58
2018-12-14T05:10:13.169Z,8.98
2018-12-14T05:12:41.624Z,8.20
2018-12-14T05:15:10.290Z,10.58
2018-12-14T05:17:38.762Z,8.78
2018-12-14T05:20:07.897Z,7.97
2018-12-14T05:22:36.322Z,9.90
2018-12-14T05:25:05.013Z,8.55
2018-12-14T05:27:33.445Z,9.13
2018-12-14T05:30:02.324Z,8.73
2018-12-14T05:32:30.749Z,9.08
2018-12-14T05:34:59.213Z,7.50
2018-12-14T05:37:27.638Z,7.83
2018-12-14T05:39:56.094Z,8.45
2018-12-14T05:42:24.569Z,9.43
2018-12-14T05:44:53.013Z,7.85
2018-12-14T05:47:21.434Z,8.95
2018-12-14T05:49:49.878Z,8.73
2018-12-14T05:52:18.314Z,8.03
2018-12-14T05:54:46.830Z,9.00
2018-12-14T05:57:15.290Z,8.43
2018-12-14T05:59:43.753Z,9.03
2018-12-14T06:02:12.213Z,8.60
2018-12-14T06:04:40.637Z,9.75
2018-12-14T06:07:09.043Z,8.28
2018-12-14T06:09:37.470Z,9.33
2018-12-14T06:12:06.202Z,8.65
2018-12-14T06:14:35.142Z,7.75
2018-12-14T06:17:03.586Z,8.65
2018-12-14T06:19:32.022Z,8.33
2018-12-14T06:22:00.425Z,8.98
2018-12-14T06:24:28.867Z,9.03
2018-12-14T06:26:57.279Z,9.68
2018-12-14T06:29:25.698Z,10.45
2018-12-14T06:31:54.134Z,9.90
2018-12-14T06:34:22.561Z,10.05
2018-12-14T06:36:52.110Z,9.25
2018-12-14T06:39:21.437Z,8.93
2018-12-14T06:41:50.193Z,10.08
2018-12-14T06:44:18.603Z,9.25
2018-12-14T06:46:47.039Z,10.23
2018-12-14T06:49:15.454Z,9.83
2018-12-14T06:51:43.922Z,9.20
2018-12-14T06:54:12.352Z,10.72
2018-12-14T06:56:40.801Z,9.33
2018-12-14T06:59:09.255Z,9.40
2018-12-14T07:01:37.777Z,9.75
2018-12-14T07:04:06.205Z,8.38
2018-12-14T07:06:34.669Z,10.03
2018-12-14T07:09:04.542Z,9.05
2018-12-14T07:11:33.015Z,10.03
2018-12-14T07:14:01.574Z,10.48
2018-12-14T07:16:30.164Z,9.55
2018-12-14T07:18:58.601Z,10.78
2018-12-14T07:21:27.066Z,8.63
2018-12-14T07:23:55.498Z,10.48
2018-12-14T07:26:23.961Z,10.48
2018-12-14T07:28:52.501Z,8.78
2018-12-14T07:31:21.082Z,9.95
2018-12-14T07:33:49.514Z,9.45
2018-12-14T07:36:17.984Z,8.23
2018-12-14T07:38:48.299Z,8.95
2018-12-14T07:41:17.003Z,8.23
2018-12-14T07:43:45.459Z,8.88
2018-12-14T07:46:13.906Z,8.33
2018-12-14T07:48:42.354Z,7.50
2018-12-14T07:51:10.818Z,7.42
2018-12-14T07:53:39.271Z,8.40
2018-12-14T07:56:07.741Z,9.10
2018-12-14T07:58:38.222Z,9.30
2018-12-14T08:01:06.774Z,8.93
2018-12-14T08:03:35.546Z,9.80
2018-12-14T08:06:03.979Z,8.10
2018-12-14T08:08:32.430Z,9.15
2018-12-14T08:11:00.854Z,10.35
2018-12-14T08:13:34.696Z,8.78
2018-12-14T08:15:59.771Z,9.53
2018-12-14T08:18:28.218Z,9.43
2018-12-14T08:20:56.646Z,10.40
2018-12-14T08:23:25.098Z,8.15
2018-12-14T08:25:53.525Z,8.48
2018-12-14T08:28:21.975Z,8.55
2018-12-14T08:30:50.416Z,9.05
2018-12-14T08:33:18.859Z,9.00
2018-12-14T08:35:47.281Z,9.78
2018-12-14T08:38:15.722Z,8.45
2018-12-14T08:40:44.164Z,9.80
2018-12-14T08:43:12.615Z,9.33
2018-12-14T08:45:41.038Z,8.70
2018-12-14T08:48:09.702Z,9.28
2018-12-14T08:50:38.362Z,8.90
2018-12-14T08:53:07.010Z,9.30
2018-12-14T08:55:35.426Z,8.95
2018-12-14T08:58:03.844Z,7.65
2018-12-14T09:00:32.280Z,9.38
2018-12-14T09:03:00.701Z,9.83
2018-12-14T09:05:29.133Z,10.63
2018-12-14T09:07:57.549Z,11.10
2018-12-14T09:10:25.994Z,10.03
2018-12-14T09:12:54.406Z,9.00
2018-12-14T09:15:22.846Z,8.75
2018-12-14T09:17:51.267Z,9.95
2018-12-14T09:20:19.865Z,8.70
2018-12-14T09:22:48.902Z,10.00
2018-12-14T09:25:17.342Z,9.60
2018-12-14T09:27:45.770Z,10.45
2018-12-14T09:30:14.201Z,9.78
2018-12-14T09:32:42.609Z,9.18
2018-12-14T09:35:11.165Z,7.90
2018-12-14T09:37:39.597Z,8.80
2018-12-14T09:40:08.145Z,9.20
2018-12-14T09:42:36.600Z,11.10
2018-12-14T09:45:05.574Z,9.68
2018-12-14T09:47:33.992Z,9.50
2018-12-14T09:50:02.439Z,9.75
2018-12-14T09:52:30.897Z,8.85
2018-12-14T09:54:59.326Z,8.13
2018-12-14T09:57:27.766Z,8.53
2018-12-14T09:59:56.194Z,10.40
2018-12-14T10:02:24.647Z,10.00
2018-12-14T10:04:53.078Z,9.45
2018-12-14T10:20:53.034Z,10.50
2018-12-14T10:23:21.574Z,10.63
2018-12-14T10:25:50.034Z,9.20
2018-12-14T10:28:18.481Z,9.13
2018-12-14T10:30:46.910Z,9.68
2018-12-14T10:33:15.350Z,9.55
2018-12-14T10:35:43.776Z,8.50
2018-12-14T10:38:12.273Z,10.15
2018-12-14T10:40:40.722Z,8.85
2018-12-14T10:43:09.185Z,9.08
2018-12-14T10:45:37.837Z,8.20
2018-12-14T10:48:06.301Z,8.90
2018-12-14T10:50:39.651Z,10.63
2018-12-14T10:53:09.430Z,9.25
2018-12-14T10:55:37.847Z,9.90
2018-12-14T10:58:06.441Z,10.23
2018-12-14T11:00:40.595Z,8.80
2018-12-14T11:03:09.027Z,8.73
2018-12-14T11:05:37.450Z,9.53
2018-12-14T11:11:59.100Z,9.45
2018-12-14T11:14:27.579Z,9.20
2018-12-14T11:16:57.187Z,8.58
2018-12-14T11:19:25.634Z,8.78
2018-12-14T11:21:54.137Z,8.30
2018-12-14T11:24:22.567Z,9.23
2018-12-14T11:26:51.014Z,9.30
2018-12-14T11:29:19.460Z,11.48
2018-12-14T11:31:47.891Z,11.60
2018-12-14T11:34:16.587Z,10.43
2018-12-14T11:36:46.360Z,8.83
2018-12-14T11:39:15.745Z,11.85
2018-12-14T11:41:44.614Z,10.18
2018-12-14T11:44:13.152Z,10.38
2018-12-14T11:46:41.575Z,9.93
2018-12-14T11:49:10.051Z,9.23
2018-12-14T11:51:38.505Z,9.48
2018-12-14T11:54:06.957Z,11.28
2018-12-14T11:56:35.381Z,9.70
2018-12-14T11:59:04.522Z,10.93
2018-12-14T12:01:34.060Z,9.38
2018-12-14T12:04:02.675Z,10.00
2018-12-14T12:06:31.657Z,10.70
2018-12-14T12:09:00.165Z,9.68
2018-12-14T12:11:28.676Z,11.43
2018-12-14T12:13:57.121Z,10.95
2018-12-14T12:16:25.656Z,9.68
2018-12-14T12:18:54.113Z,9.03
2018-12-14T12:21:22.555Z,11.30
2018-12-14T12:23:55.327Z,8.70
2018-12-14T12:26:21.481Z,11.43
2018-12-14T12:28:50.007Z,10.93
2018-12-14T12:31:18.429Z,10.00
2018-12-14T12:33:46.870Z,9.38
2018-12-14T12:36:15.319Z,10.50
2018-12-14T12:38:43.882Z,11.80
2018-12-14T12:41:12.588Z,9.78
2018-12-14T12:43:41.048Z,10.45
2018-12-14T12:46:09.763Z,9.55
2018-12-14T12:48:38.599Z,11.18
2018-12-14T12:51:07.224Z,9.83
2018-12-14T12:53:35.663Z,10.28
2018-12-14T12:56:04.354Z,10.75
2018-12-14T12:58:32.851Z,9.90
2018-12-14T13:01:01.343Z,10.70
2018-12-14T13:03:29.820Z,8.98
2018-12-14T13:05:58.279Z,11.00
2018-12-14T13:08:26.697Z,9.45
2018-12-14T13:10:55.168Z,9.30
2018-12-14T13:13:23.602Z,8.35
2018-12-14T13:15:52.049Z,10.13
2018-12-14T13:18:20.483Z,9.08
2018-12-14T13:20:48.929Z,9.95
2018-12-14T13:23:17.346Z,9.73
2018-12-14T13:25:45.790Z,9.65
2018-12-14T13:28:14.354Z,7.58
2018-12-14T13:30:43.239Z,9.68
2018-12-14T13:33:11.981Z,8.58
2018-12-14T13:35:40.603Z,8.28
2018-12-14T13:38:09.047Z,9.10
2018-12-14T13:40:37.598Z,10.43
2018-12-14T13:43:06.035Z,9.45
2018-12-14T13:45:34.629Z,9.48
2018-12-14T13:48:03.049Z,8.98
2018-12-14T13:50:31.711Z,7.92
2018-12-14T13:53:00.143Z,8.95
2018-12-14T13:55:28.571Z,8.83
2018-12-14T13:57:56.989Z,8.93
2018-12-14T14:00:25.626Z,9.40
2018-12-14T14:02:54.034Z,8.03
2018-12-14T14:05:22.446Z,8.75
2018-12-14T14:07:50.881Z,8.65
2018-12-14T14:10:19.307Z,7.50
2018-12-14T14:12:47.735Z,9.58
2018-12-14T14:15:20.850Z,8.60
2018-12-14T14:17:46.690Z,9.60
2018-12-14T14:20:15.104Z,7.85
2018-12-14T14:22:43.660Z,7.65
2018-12-14T14:25:17.490Z,7.70
2018-12-14T14:27:42.658Z,8.53
2018-12-14T14:30:11.183Z,7.83
2018-12-14T14:32:39.606Z,8.35
2018-12-14T14:35:08.149Z,7.83
2018-12-14T14:37:36.582Z,7.25
2018-12-14T14:40:05.631Z,8.28
2018-12-14T14:42:34.064Z,7.45
2018-12-14T14:45:02.522Z,6.80
2018-12-14T14:47:30.950Z,7.65
2018-12-14T14:49:59.364Z,8.05
2018-12-14T14:52:27.823Z,7.35
2018-12-14T14:54:56.557Z,7.28
2018-12-14T14:57:25.010Z,9.00
2018-12-14T14:59:53.427Z,8.33
2018-12-14T15:02:21.902Z,8.78
2018-12-14T15:04:50.334Z,8.08
2018-12-14T15:07:18.835Z,8.10
2018-12-14T15:09:47.262Z,7.70
2018-12-14T15:12:15.717Z,7.50
2018-12-14T15:14:44.761Z,7.42
2018-12-14T15:17:13.462Z,7.50
2018-12-14T15:19:42.010Z,8.20
2018-12-14T15:22:10.492Z,8.25
2018-12-14T15:24:48.511Z,7.72
2018-12-14T15:27:16.986Z,6.92
2018-12-14T15:29:45.450Z,9.18
2018-12-14T15:32:14.444Z,8.08
2018-12-14T15:34:42.934Z,9.30
2018-12-14T15:37:11.382Z,7.25
2018-12-14T15:39:39.825Z,8.65
2018-12-14T15:42:08.278Z,7.45
2018-12-14T15:44:36.823Z,8.13
2018-12-14T15:47:05.296Z,9.50
2018-12-14T15:49:33.737Z,9.10
2018-12-14T15:52:02.166Z,8.98
2018-12-14T15:54:30.585Z,8.48
2018-12-14T15:56:58.985Z,8.35
2018-12-14T15:59:27.414Z,8.33
2018-12-14T16:01:55.831Z,7.22
2018-12-14T16:04:24.266Z,8.00
2018-12-14T16:06:52.674Z,8.95
2018-12-14T16:09:21.173Z,9.98
2018-12-14T16:11:49.640Z,7.50
2018-12-14T16:14:18.082Z,8.25
2018-12-14T16:16:46.483Z,8.70
2018-12-14T16:19:14.911Z,8.68
2018-12-14T16:21:43.494Z,7.78
2018-12-14T16:24:11.931Z,8.18
2018-12-14T16:26:40.459Z,9.68
2018-12-14T16:29:08.874Z,10.78
2018-12-14T16:31:37.306Z,8.05
2018-12-14T16:34:05.740Z,9.45
2018-12-14T16:36:34.177Z,8.60
2018-12-14T16:39:02.786Z,8.23
2018-12-14T16:41:31.229Z,8.38
2018-12-14T16:43:59.651Z,8.98
2018-12-14T16:46:28.078Z,8.75
2018-12-14T16:48:56.493Z,9.68
2018-12-14T16:51:25.078Z,8.35
2018-12-14T16:53:59.067Z,8.20
2018-12-14T16:56:27.497Z,7.60
2018-12-14T16:58:55.906Z,8.68
2018-12-14T17:01:24.471Z,8.23
2018-12-14T17:03:52.882Z,9.65
2018-12-14T17:06:21.330Z,8.70
2018-12-14T17:08:49.864Z,10.40
2018-12-14T17:11:18.313Z,10.40
2018-12-14T17:13:46.727Z,8.03
2018-12-14T17:16:15.153Z,8.78
2018-12-14T17:18:43.566Z,8.93
2018-12-14T17:21:12.115Z,8.20
2018-12-14T17:23:40.638Z,8.98
2018-12-14T17:26:09.062Z,8.60
2018-12-14T17:28:37.484Z,8.75
2018-12-14T17:31:06.629Z,7.60
2018-12-14T17:33:36.198Z,8.55
2018-12-14T17:36:04.958Z,7.90
2018-12-14T17:38:33.369Z,9.70
2018-12-14T17:41:01.801Z,8.80
2018-12-14T17:43:30.246Z,8.40
2018-12-14T17:45:58.662Z,9.10
2018-12-14T17:48:27.094Z,8.28
2018-12-14T17:50:55.534Z,9.20
2018-12-14T17:53:23.974Z,9.20
2018-12-14T17:55:52.442Z,8.10
2018-12-14T17:58:20.894Z,8.68
2018-12-14T18:00:49.320Z,8.88
2018-12-14T18:03:17.753Z,9.08
2018-12-14T18:05:46.174Z,7.92
2018-12-14T18:08:14.618Z,9.68
2018-12-14T18:10:43.091Z,8.90
2018-12-14T18:13:11.538Z,9.70
2018-12-14T18:15:46.215Z,10.00
2018-12-14T18:18:10.441Z,11.05
2018-12-14T18:20:38.127Z,9.23
2018-12-14T18:23:06.590Z,9.28
2018-12-14T18:25:35.074Z,8.18
2018-12-14T18:28:03.517Z,8.63
2018-12-14T18:30:31.981Z,9.90
2018-12-14T18:33:00.418Z,8.28
2018-12-14T18:35:28.851Z,8.95
2018-12-14T18:37:57.273Z,8.83
2018-12-14T18:40:25.673Z,9.33
2018-12-14T18:42:54.094Z,9.73
2018-12-14T18:45:22.512Z,8.35
2018-12-14T18:47:50.962Z,8.35
2018-12-14T18:50:19.378Z,8.30
2018-12-14T18:52:47.831Z,10.15
2018-12-14T18:55:16.286Z,9.90
2018-12-14T18:57:44.730Z,9.03
2018-12-14T19:00:13.303Z,8.50
2018-12-14T19:02:41.731Z,10.20
2018-12-14T19:05:10.191Z,9.43
2018-12-14T19:07:38.618Z,9.40
2018-12-14T19:10:07.192Z,8.68
2018-12-14T19:12:35.734Z,9.25
2018-12-14T19:15:04.822Z,9.88
2018-12-14T19:17:33.253Z,8.80
2018-12-14T19:20:01.749Z,9.55
2018-12-14T19:22:30.195Z,8.90
2018-12-14T19:24:58.638Z,10.28
2018-12-14T19:27:27.073Z,9.55
2018-12-14T19:29:55.514Z,10.85
2018-12-14T19:32:23.983Z,9.50
2018-12-14T19:34:52.423Z,10.40
2018-12-14T19:37:21.014Z,9.58
2018-12-14T19:39:49.459Z,10.18
2018-12-14T19:42:17.894Z,9.40
2018-12-14T19:44:46.347Z,10.80
2018-12-14T19:47:14.921Z,10.08
2018-12-14T19:49:43.588Z,11.00
2018-12-14T19:52:12.356Z,11.10
2018-12-14T19:54:41.003Z,10.25
2018-12-14T19:57:09.438Z,8.73
2018-12-14T19:59:37.868Z,9.80
2018-12-14T20:02:06.306Z,9.73
2018-12-14T20:04:34.786Z,10.38
2018-12-14T20:07:03.769Z,9.95
2018-12-14T20:09:32.220Z,10.38
2018-12-14T20:12:00.659Z,9.80
2018-12-14T20:14:29.072Z,9.90
2018-12-14T20:16:57.502Z,9.20
2018-12-14T20:19:25.906Z,9.80
2018-12-14T20:21:54.369Z,10.78
2018-12-14T20:24:22.793Z,10.85
2018-12-14T20:26:51.239Z,9.85
2018-12-14T20:29:19.653Z,8.80
2018-12-14T20:31:48.083Z,10.05
2018-12-14T20:34:16.494Z,9.38
2018-12-14T20:36:44.922Z,9.85
2018-12-14T20:39:13.335Z,10.43
2018-12-14T20:41:41.770Z,11.57
2018-12-14T20:44:10.306Z,10.03
2018-12-14T20:46:38.737Z,10.05
2018-12-14T20:49:07.149Z,10.35
2018-12-14T20:51:35.622Z,10.78
2018-12-14T20:54:04.837Z,10.88
2018-12-14T20:56:33.338Z,11.68
2018-12-14T20:59:02.573Z,10.48
2018-12-14T21:01:31.027Z,11.55
2018-12-14T21:03:59.466Z,11.53
2018-12-14T21:06:27.961Z,9.30
2018-12-14T21:08:56.450Z,10.60
2018-12-14T21:11:24.942Z,11.75
2018-12-14T21:13:53.369Z,11.55
2018-12-14T21:16:25.870Z,11.03
2018-12-14T21:18:52.389Z,11.25
2018-12-14T21:21:20.962Z,9.95
2018-12-14T21:23:49.479Z,11.57
2018-12-14T21:26:17.968Z,11.38
2018-12-14T21:28:46.403Z,10.28
2018-12-14T21:31:14.890Z,11.68
2018-12-14T21:33:43.414Z,12.25
2018-12-14T21:36:11.915Z,12.28
2018-12-14T21:38:40.371Z,11.97
2018-12-14T21:41:08.812Z,11.35
2018-12-14T21:43:37.249Z,10.82
2018-12-14T21:46:05.686Z,10.18
2018-12-14T21:48:34.181Z,10.38
2018-12-14T21:51:02.614Z,8.53
2018-12-14T21:53:31.041Z,9.73
2018-12-14T21:55:59.449Z,11.35
2018-12-14T21:58:27.903Z,10.65
2018-12-14T22:00:56.327Z,10.43
2018-12-14T22:03:24.754Z,10.65
2018-12-14T22:05:53.166Z,11.43
2018-12-14T22:08:21.635Z,12.05
2018-12-14T22:10:50.047Z,10.55
2018-12-14T22:13:18.479Z,11.35
2018-12-14T22:15:46.893Z,12.75
2018-12-14T22:18:15.641Z,10.68
2018-12-14T22:20:44.060Z,12.60
2018-12-14T22:23:12.489Z,11.25
2018-12-14T22:25:40.915Z,11.70
2018-12-14T22:28:09.345Z,11.00
2018-12-14T22:30:37.767Z,11.38
2018-12-14T22:33:06.293Z,11.20
2018-12-14T22:35:34.763Z,10.70
2018-12-14T22:38:03.231Z,10.63
2018-12-14T22:40:31.648Z,12.33
2018-12-14T22:43:00.066Z,12.00
2018-12-14T22:45:28.494Z,10.90
2018-12-14T22:47:56.905Z,9.35
2018-12-14T22:50:25.371Z,9.15
2018-12-14T22:52:53.803Z,9.45
2018-12-14T22:55:22.286Z,11.60
2018-12-14T22:57:50.723Z,10.95
2018-12-14T23:00:20.379Z,10.18
2018-12-14T23:02:49.036Z,10.35
2018-12-14T23:05:17.509Z,11.93
2018-12-14T23:07:45.937Z,12.40
2018-12-14T23:10:14.395Z,9.73
2018-12-14T23:12:42.842Z,11.65
2018-12-14T23:15:11.346Z,10.45
2018-12-14T23:17:39.812Z,11.78
2018-12-14T23:20:08.262Z,10.45
2018-12-14T23:22:36.695Z,11.20
2018-12-14T23:25:05.428Z,10.13
2018-12-14T23:27:33.850Z,9.35
2018-12-14T23:30:02.301Z,9.33
2018-12-14T23:32:30.767Z,10.48
2018-12-14T23:34:59.293Z,9.68
2018-12-14T23:37:27.718Z,10.05
2018-12-14T23:39:56.158Z,11.10
2018-12-14T23:42:24.582Z,10.95
2018-12-14T23:44:53.055Z,10.20
2018-12-14T23:47:21.484Z,11.05
2018-12-14T23:49:49.905Z,9.00
2018-12-14T23:52:18.369Z,10.20
2018-12-14T23:54:46.794Z,9.75
2018-12-14T23:57:15.278Z,9.30
2018-12-14T23:59:43.711Z,9.28
